Time;durP1;ratioP1;P1;durP2;ratioP2;P2;SDS_P1;SDS_P2;PMS_P1;PMS_P2;Temp;Humidity;BMP_temperature;BMP_pressure;BME280_temperature;BME280_humidity;BME280_pressure;Samples;Min_cycle;Max_cycle;Signal;HPM_P1;HPM_P2
2023/03/24 00:00:19;;;;;;;8.82;4.60;;;14.30;64.00;;;;;;4982308;28;20042;-63
2023/03/24 00:02:45;;;;;;;5.70;4.60;;;14.20;64.50;;;;;;4980757;28;20034;-62
2023/03/24 00:05:14;;;;;;;4.53;4.13;;;14.20;64.50;;;;;;4980691;28;20494;-63
2023/03/24 00:07:40;;;;;;;6.72;5.05;;;14.20;64.70;;;;;;4983069;28;20053;-63
2023/03/24 00:10:16;;;;;;;8.80;5.30;;;14.20;64.70;;;;;;4982878;28;20794;-62
2023/03/24 00:12:43;;;;;;;5.78;4.78;;;14.20;65.50;;;;;;4978883;28;20030;-62
2023/03/24 00:15:12;;;;;;;6.63;5.07;;;14.10;65.00;;;;;;4981878;28;20110;-63
2023/03/24 00:17:38;;;;;;;7.55;5.10;;;14.10;65.20;;;;;;4981404;28;20049;-63
2023/03/24 00:20:06;;;;;;;5.75;4.55;;;14.10;65.20;;;;;;4981177;28;20489;-63
2023/03/24 00:22:33;;;;;;;6.50;4.50;;;14.10;65.30;;;;;;4980672;28;20045;-63
2023/03/24 00:25:03;;;;;;;6.18;4.90;;;14.10;65.30;;;;;;4980766;28;20130;-62
2023/03/24 00:27:29;;;;;;;5.72;4.13;;;14.10;65.50;;;;;;4982470;28;20117;-63
2023/03/24 00:29:58;;;;;;;4.72;3.90;;;14.10;65.50;;;;;;4979551;28;20561;-63
2023/03/24 00:32:24;;;;;;;5.30;4.30;;;14.10;65.70;;;;;;4980779;28;20045;-63
2023/03/24 00:34:51;;;;;;;5.35;4.10;;;14.20;65.90;;;;;;4980360;28;20045;-61
2023/03/24 00:37:16;;;;;;;5.00;3.70;;;14.20;65.90;;;;;;4980281;28;20136;-63
2023/03/24 00:39:42;;;;;;;5.75;4.03;;;14.20;65.90;;;;;;4980153;28;20030;-62
2023/03/24 00:42:08;;;;;;;4.20;3.60;;;14.20;65.70;;;;;;4982488;28;20465;-61
2023/03/24 00:44:35;;;;;;;4.63;4.00;;;14.20;65.90;;;;;;4980921;28;20535;-62
2023/03/24 00:47:00;;;;;;;4.45;3.60;;;14.20;66.00;;;;;;4981378;28;20069;-61
2023/03/24 00:49:41;;;;;;;5.78;4.22;;;14.20;66.00;;;;;;4982155;28;20042;-63
2023/03/24 00:52:19;;;;;;;4.25;3.75;;;14.10;66.10;;;;;;4981397;28;20054;-62
2023/03/24 00:54:47;;;;;;;7.75;3.75;;;14.10;66.60;;;;;;4978951;28;20034;-63
2023/03/24 00:57:20;;;;;;;3.83;3.40;;;14.10;66.20;;;;;;4981861;28;20038;-63
2023/03/24 00:59:48;;;;;;;3.80;3.50;;;14.10;66.40;;;;;;4983905;28;20168;-63
2023/03/24 01:02:17;;;;;;;7.50;3.55;;;14.10;66.40;;;;;;4986379;28;20076;-62
2023/03/24 01:04:46;;;;;;;5.05;3.70;;;14.10;66.70;;;;;;4988371;28;20046;-63
2023/03/24 01:07:16;;;;;;;4.35;3.70;;;14.10;66.60;;;;;;4987867;28;20125;-63
2023/03/24 01:09:45;;;;;;;7.30;4.00;;;14.10;66.50;;;;;;4988053;28;20045;-62
2023/03/24 01:12:10;;;;;;;3.83;3.47;;;14.10;66.60;;;;;;4981991;28;20065;-63
2023/03/24 01:14:36;;;;;;;6.07;3.60;;;14.10;66.70;;;;;;4984302;28;20038;-62
2023/03/24 01:17:02;;;;;;;4.10;3.53;;;14.10;66.60;;;;;;4982533;28;20117;-61
2023/03/24 01:19:28;;;;;;;3.53;3.13;;;14.20;66.70;;;;;;4986503;28;20544;-61
2023/03/24 01:21:53;;;;;;;4.88;3.05;;;14.10;66.40;;;;;;4985022;28;20034;-63
2023/03/24 01:24:20;;;;;;;2.85;2.55;;;14.10;66.00;;;;;;4984820;28;20092;-62
2023/03/24 01:26:46;;;;;;;3.00;2.70;;;14.20;65.90;;;;;;4985135;28;20039;-63
2023/03/24 01:29:12;;;;;;;3.60;2.90;;;14.20;65.80;;;;;;4984092;28;20041;-60
2023/03/24 01:31:37;;;;;;;3.00;2.63;;;14.20;65.70;;;;;;4983308;28;20048;-63
2023/03/24 01:34:03;;;;;;;3.60;2.80;;;14.20;65.70;;;;;;4985595;28;20027;-63
2023/03/24 01:36:29;;;;;;;3.08;2.78;;;14.30;65.90;;;;;;4984759;28;20062;-63
2023/03/24 01:38:57;;;;;;;2.92;2.63;;;14.30;65.80;;;;;;4981767;28;20114;-63
2023/03/24 01:41:23;;;;;;;5.03;3.17;;;14.40;65.70;;;;;;4987172;28;20230;-61
2023/03/24 01:43:49;;;;;;;3.85;2.90;;;14.40;65.70;;;;;;4986995;28;20558;-63
2023/03/24 01:46:19;;;;;;;4.35;2.70;;;14.40;65.50;;;;;;4984970;28;20125;-63
2023/03/24 01:48:53;;;;;;;4.47;2.85;;;14.40;65.30;;;;;;4988489;28;20030;-63
2023/03/24 01:51:18;;;;;;;4.20;3.00;;;14.40;65.20;;;;;;4984594;28;20092;-63
2023/03/24 01:54:07;;;;;;;3.05;2.75;;;14.40;65.00;;;;;;4983062;28;20129;-63
2023/03/24 01:56:37;;;;;;;3.05;2.75;;;14.40;65.00;;;;;;4984612;28;20122;-60
2023/03/24 01:59:10;;;;;;;4.47;3.00;;;14.40;64.90;;;;;;4983921;28;20042;-63
2023/03/24 02:01:36;;;;;;;4.53;3.03;;;14.40;64.90;;;;;;4984508;28;20120;-61
2023/03/24 02:04:04;;;;;;;3.70;2.65;;;14.40;64.60;;;;;;4984651;28;20501;-63
2023/03/24 02:06:34;;;;;;;4.43;2.80;;;14.40;64.50;;;;;;4984789;28;20110;-61
2023/03/24 02:09:00;;;;;;;3.22;2.92;;;14.40;64.50;;;;;;4982186;28;20108;-62
2023/03/24 02:11:29;;;;;;;3.67;2.95;;;14.50;64.50;;;;;;4984214;28;20038;-63
2023/03/24 02:13:55;;;;;;;3.00;2.75;;;14.50;64.50;;;;;;4981594;28;20066;-62
2023/03/24 02:16:30;;;;;;;3.97;2.80;;;14.50;64.30;;;;;;4982763;28;20066;-62
2023/03/24 02:19:14;;;;;;;3.00;2.70;;;14.50;64.40;;;;;;4982122;28;20312;-64
2023/03/24 02:21:55;;;;;;;3.17;2.88;;;14.50;64.20;;;;;;4982398;28;20054;-63
2023/03/24 02:24:39;;;;;;;3.38;2.65;;;14.60;64.20;;;;;;4986392;28;20074;-63
2023/03/24 02:27:23;;;;;;;4.05;2.92;;;14.60;64.10;;;;;;4983150;28;20038;-63
2023/03/24 02:30:21;;;;;;;3.20;2.90;;;14.60;64.00;;;;;;4982149;28;20037;-63
2023/03/24 02:33:09;;;;;;;2.70;2.47;;;14.60;64.00;;;;;;4983817;28;20050;-61
2023/03/24 02:35:43;;;;;;;5.68;3.10;;;14.60;64.00;;;;;;4981693;28;20045;-62
2023/03/24 02:38:27;;;;;;;3.20;2.65;;;14.60;63.70;;;;;;4983006;28;20038;-63
2023/03/24 02:41:16;;;;;;;4.90;3.03;;;14.60;63.80;;;;;;4982718;28;20034;-61
2023/03/24 02:44:22;;;;;;;6.05;3.10;;;14.60;63.80;;;;;;4981584;28;20521;-62
2023/03/24 02:47:08;;;;;;;3.83;2.80;;;14.60;64.10;;;;;;4962823;28;20038;-63
2023/03/24 02:49:42;;;;;;;5.70;3.08;;;14.60;64.00;;;;;;4972764;28;20057;-63
2023/03/24 02:52:32;;;;;;;5.57;2.72;;;14.60;63.70;;;;;;4982698;28;21817;-63
2023/03/24 02:55:13;;;;;;;3.25;2.83;;;14.60;63.80;;;;;;4981873;28;20118;-61
2023/03/24 02:57:56;;;;;;;4.32;2.83;;;14.60;63.60;;;;;;4983980;28;20037;-62
2023/03/24 03:00:31;;;;;;;3.42;3.13;;;14.70;64.00;;;;;;4981550;28;20152;-62
2023/03/24 03:03:07;;;;;;;4.60;2.72;;;14.60;63.70;;;;;;4983037;28;20088;-61
2023/03/24 03:05:44;;;;;;;3.20;2.80;;;14.70;63.70;;;;;;4981908;28;20613;-63
2023/03/24 03:08:13;;;;;;;4.28;2.60;;;14.70;63.70;;;;;;4984854;28;20034;-62
2023/03/24 03:10:45;;;;;;;6.43;3.17;;;14.70;63.70;;;;;;4979328;28;20520;-61
2023/03/24 03:13:20;;;;;;;5.50;3.08;;;14.70;63.70;;;;;;4982549;28;20046;-62
2023/03/24 03:15:47;;;;;;;;;;;14.70;63.70;;;;;;4981057;28;20042;-62
2023/03/24 03:18:22;;;;;;;3.33;2.50;;;14.70;63.60;;;;;;4981387;28;20212;-63
2023/03/24 03:20:54;;;;;;;3.08;2.70;;;14.70;63.50;;;;;;4979144;28;20378;-62
2023/03/24 03:23:27;;;;;;;3.83;2.83;;;14.70;63.60;;;;;;4983167;28;20034;-62
2023/03/24 03:26:04;;;;;;;3.70;2.70;;;14.70;63.60;;;;;;4982110;28;20041;-63
2023/03/24 03:28:35;;;;;;;2.67;2.47;;;14.70;63.80;;;;;;4981499;28;20049;-62
2023/03/24 03:31:07;;;;;;;2.97;2.50;;;14.70;63.70;;;;;;4980066;28;20044;-63
2023/03/24 03:33:48;;;;;;;3.17;2.80;;;14.70;63.80;;;;;;4980316;28;20042;-63
2023/03/24 03:36:36;;;;;;;2.90;2.50;;;14.70;64.00;;;;;;4982464;28;20413;-63
2023/03/24 03:39:17;;;;;;;2.70;2.50;;;14.70;64.00;;;;;;4983810;28;20121;-63
2023/03/24 03:41:43;;;;;;;3.33;2.50;;;14.70;64.20;;;;;;4986223;28;20053;-62
2023/03/24 03:44:09;;;;;;;3.08;2.47;;;14.70;64.00;;;;;;4983050;28;20422;-62
2023/03/24 03:46:42;;;;;;;2.92;2.70;;;14.70;64.10;;;;;;5023806;28;20445;-60
2023/03/24 03:49:08;;;;;;;4.72;2.60;;;14.70;64.10;;;;;;5009002;28;20536;-60
2023/03/24 03:51:34;;;;;;;3.72;2.70;;;14.70;64.10;;;;;;5004284;28;20061;-63
2023/03/24 03:54:04;;;;;;;4.28;2.85;;;14.70;64.20;;;;;;5005106;28;20132;-61
2023/03/24 03:56:33;;;;;;;2.97;2.42;;;14.70;64.40;;;;;;5008501;28;20041;-62
2023/03/24 03:58:58;;;;;;;3.67;2.63;;;14.70;64.50;;;;;;5006710;28;20498;-63
2023/03/24 04:01:28;;;;;;;3.22;2.80;;;14.60;64.50;;;;;;5002486;28;20065;-63
2023/03/24 04:04:03;;;;;;;9.13;6.05;;;14.40;64.50;;;;;;5005843;28;20034;-62
2023/03/24 04:06:46;;;;;;;4.00;3.28;;;14.60;65.00;;;;;;5002204;28;20038;-62
2023/03/24 04:09:34;;;;;;;5.85;4.35;;;14.60;65.10;;;;;;5003742;28;20061;-61
2023/03/24 04:12:21;;;;;;;3.45;3.13;;;14.60;65.50;;;;;;5017398;28;20030;-62
2023/03/24 04:14:55;;;;;;;6.47;3.75;;;14.60;65.50;;;;;;5020180;28;22059;-63
2023/03/24 04:17:27;;;;;;;5.38;4.20;;;14.60;65.70;;;;;;5027097;28;20037;-62
2023/03/24 04:19:59;;;;;;;2.35;2.15;;;14.60;66.20;;;;;;5024306;28;20397;-63
2023/03/24 04:22:31;;;;;;;2.58;2.28;;;14.70;66.40;;;;;;5020887;28;20040;-62
2023/03/24 04:25:25;;;;;;;2.80;2.60;;;14.70;66.90;;;;;;5024829;28;20045;-62
2023/03/24 04:28:08;;;;;;;3.75;2.65;;;14.70;67.40;;;;;;5021913;28;20034;-62
2023/03/24 04:30:37;;;;;;;2.90;2.58;;;14.70;67.40;;;;;;5023561;28;20042;-63
2023/03/24 04:33:27;;;;;;;2.70;2.50;;;14.60;66.70;;;;;;5023756;28;20328;-62
2023/03/24 04:36:05;;;;;;;2.60;2.40;;;14.60;67.60;;;;;;5028287;28;20513;-59
2023/03/24 04:38:34;;;;;;;2.95;2.65;;;14.60;67.30;;;;;;5022642;28;20161;-62
2023/03/24 04:41:02;;;;;;;3.65;2.90;;;14.50;66.90;;;;;;5025592;28;20038;-61
2023/03/24 04:43:34;;;;;;;4.07;2.80;;;14.50;67.00;;;;;;5024452;28;20513;-61
2023/03/24 04:46:02;;;;;;;3.25;2.95;;;14.50;67.30;;;;;;5023767;28;20069;-63
2023/03/24 04:48:29;;;;;;;5.97;3.35;;;14.40;67.30;;;;;;5023925;28;20141;-62
2023/03/24 04:51:00;;;;;;;4.35;3.05;;;14.40;67.20;;;;;;5028095;28;20038;-62
2023/03/24 04:53:26;;;;;;;5.22;2.95;;;14.40;67.50;;;;;;5023151;28;20523;-62
2023/03/24 04:56:29;;;;;;;4.47;3.10;;;14.30;67.40;;;;;;5024607;28;20083;-62
2023/03/24 04:58:55;;;;;;;3.50;3.03;;;14.30;67.90;;;;;;5009019;28;20116;-63
2023/03/24 05:01:21;;;;;;;12.40;6.53;;;14.30;67.40;;;;;;5010797;28;20112;-62
2023/03/24 05:03:48;;;;;;;7.07;4.85;;;14.30;67.60;;;;;;5011727;28;20601;-61
2023/03/24 05:06:13;;;;;;;9.63;6.90;;;14.30;67.60;;;;;;5011983;28;20100;-62
2023/03/24 05:08:40;;;;;;;5.72;4.57;;;14.30;67.60;;;;;;5011418;28;20042;-60
2023/03/24 05:11:06;;;;;;;5.70;4.60;;;14.30;67.60;;;;;;5012974;28;20452;-62
2023/03/24 05:13:31;;;;;;;4.20;3.08;;;14.30;67.70;;;;;;5010935;28;20037;-62
2023/03/24 05:15:57;;;;;;;3.97;3.47;;;14.30;67.90;;;;;;5007008;28;20076;-60
2023/03/24 05:18:23;;;;;;;4.90;4.22;;;14.30;68.10;;;;;;5008054;28;20037;-62
2023/03/24 05:20:49;;;;;;;4.07;3.58;;;14.20;68.00;;;;;;5012310;28;20044;-61
2023/03/24 05:23:15;;;;;;;5.03;3.45;;;14.20;68.10;;;;;;5009618;28;20033;-62
2023/03/24 05:25:41;;;;;;;3.47;3.17;;;14.20;68.30;;;;;;5009362;28;20053;-62
2023/03/24 05:28:06;;;;;;;10.75;8.32;;;14.20;68.30;;;;;;5006901;28;20490;-62
2023/03/24 05:30:32;;;;;;;5.03;3.55;;;14.10;68.20;;;;;;5007435;28;20108;-62
2023/03/24 05:32:58;;;;;;;5.65;3.70;;;14.20;68.30;;;;;;5008356;28;20121;-62
2023/03/24 05:35:24;;;;;;;5.05;3.30;;;14.20;68.30;;;;;;5005874;28;20509;-62
2023/03/24 05:37:50;;;;;;;3.40;3.10;;;14.20;68.30;;;;;;5008824;28;20037;-62
2023/03/24 05:40:16;;;;;;;5.65;3.60;;;14.20;68.30;;;;;;5005487;28;20049;-62
2023/03/24 05:42:42;;;;;;;3.45;3.15;;;14.20;68.40;;;;;;5010232;28;20049;-62
2023/03/24 05:45:09;;;;;;;4.05;3.65;;;14.20;68.50;;;;;;5005384;28;20464;-61
2023/03/24 05:47:34;;;;;;;5.35;4.85;;;14.10;68.60;;;;;;5007473;28;20551;-62
2023/03/24 05:50:00;;;;;;;7.18;6.40;;;14.20;68.80;;;;;;5004777;28;20245;-62
2023/03/24 05:52:26;;;;;;;4.10;3.40;;;14.10;68.90;;;;;;5013530;28;20497;-62
2023/03/24 05:54:51;;;;;;;3.65;2.92;;;14.20;69.10;;;;;;5011275;28;20034;-62
2023/03/24 05:57:18;;;;;;;3.30;2.63;;;14.20;69.20;;;;;;5012871;28;20060;-62
2023/03/24 05:59:43;;;;;;;2.30;2.10;;;14.20;69.50;;;;;;5012610;28;20680;-63
2023/03/24 06:02:09;;;;;;;2.10;1.90;;;14.20;69.50;;;;;;5013349;28;20040;-63
2023/03/24 06:04:35;;;;;;;1.67;1.58;;;14.30;69.50;;;;;;5009627;28;20136;-62
2023/03/24 06:07:01;;;;;;;1.88;1.65;;;14.30;69.50;;;;;;5013866;28;20061;-62
2023/03/24 06:09:36;;;;;;;1.80;1.70;;;14.30;70.40;;;;;;5011405;28;20057;-62
2023/03/24 06:12:02;;;;;;;;;;;14.40;69.70;;;;;;5008100;28;20030;-63
2023/03/24 06:14:28;;;;;;;2.08;1.50;;;14.50;69.70;;;;;;5008233;28;19913;-63
2023/03/24 06:16:58;;;;;;;4.72;1.80;;;14.60;69.00;;;;;;5011061;28;20045;-61
2023/03/24 06:19:25;;;;;;;1.80;1.70;;;14.50;69.00;;;;;;5008190;28;20034;-62
2023/03/24 06:21:52;;;;;;;2.83;1.80;;;14.60;69.00;;;;;;5008017;28;20493;-61
2023/03/24 06:24:18;;;;;;;1.75;1.52;;;14.70;69.30;;;;;;5010310;28;20121;-62
2023/03/24 06:26:44;;;;;;;1.80;1.70;;;14.70;69.20;;;;;;5009068;28;20045;-63
2023/03/24 06:29:11;;;;;;;2.78;1.90;;;14.70;69.00;;;;;;5010690;28;20042;-63
2023/03/24 06:31:38;;;;;;;2.67;1.58;;;14.80;68.90;;;;;;5008673;28;20523;-62
2023/03/24 06:34:04;;;;;;;1.83;1.73;;;14.80;68.80;;;;;;5008943;28;20830;-62
2023/03/24 06:36:30;;;;;;;2.00;1.80;;;14.80;68.80;;;;;;5010460;28;20140;-62
2023/03/24 06:38:55;;;;;;;2.17;1.95;;;14.90;68.80;;;;;;5007679;28;20041;-63
2023/03/24 06:41:22;;;;;;;2.70;1.95;;;14.90;68.80;;;;;;5010518;28;20045;-62
2023/03/24 06:43:48;;;;;;;2.33;1.83;;;14.90;68.80;;;;;;5011320;28;20124;-62
2023/03/24 06:46:14;;;;;;;1.70;1.50;;;14.90;68.80;;;;;;5008023;28;20063;-61
2023/03/24 06:48:39;;;;;;;1.88;1.77;;;15.00;69.70;;;;;;5008855;28;20037;-63
2023/03/24 06:51:06;;;;;;;1.70;1.60;;;15.00;68.80;;;;;;5008144;28;20045;-62
2023/03/24 06:53:31;;;;;;;2.00;1.80;;;15.00;68.80;;;;;;5008470;28;20073;-63
2023/03/24 06:55:57;;;;;;;3.20;1.67;;;15.00;68.80;;;;;;5010898;28;20124;-61
2023/03/24 06:58:22;;;;;;;2.28;2.08;;;15.00;68.80;;;;;;5006125;28;20070;-62
2023/03/24 07:00:49;;;;;;;2.40;2.15;;;15.00;68.90;;;;;;5003759;28;20665;-62
2023/03/24 07:03:15;;;;;;;2.55;2.20;;;15.10;68.80;;;;;;5010068;28;20038;-61
2023/03/24 07:05:42;;;;;;;2.30;2.05;;;15.10;68.90;;;;;;5007952;28;20057;-63
2023/03/24 07:08:08;;;;;;;3.40;2.22;;;15.10;68.90;;;;;;5010897;28;20386;-60
2023/03/24 07:10:38;;;;;;;2.20;2.00;;;15.10;68.80;;;;;;5014051;28;20103;-59
2023/03/24 07:13:05;;;;;;;2.17;1.98;;;15.10;69.20;;;;;;5010576;28;20045;-62
2023/03/24 07:15:31;;;;;;;2.58;2.38;;;15.10;68.80;;;;;;5012172;28;20493;-62
2023/03/24 07:17:57;;;;;;;2.40;2.00;;;15.10;69.00;;;;;;5011983;28;20394;-62
2023/03/24 07:20:22;;;;;;;2.38;1.90;;;15.20;69.00;;;;;;5011131;28;20497;-61
2023/03/24 07:22:49;;;;;;;2.40;2.10;;;15.20;69.00;;;;;;5011747;28;20063;-62
2023/03/24 07:25:18;;;;;;;2.08;1.90;;;15.20;68.90;;;;;;5011526;28;20041;-62
2023/03/24 07:27:45;;;;;;;2.17;1.98;;;15.30;69.50;;;;;;5012110;28;20125;-62
2023/03/24 07:30:12;;;;;;;3.78;2.80;;;15.30;69.90;;;;;;5006712;28;20042;-62
2023/03/24 07:32:38;;;;;;;2.65;2.08;;;15.20;69.20;;;;;;5012553;28;20068;-62
2023/03/24 07:35:09;;;;;;;3.30;3.00;;;15.30;69.20;;;;;;5012017;28;20066;-62
2023/03/24 07:37:36;;;;;;;5.20;3.08;;;15.30;69.50;;;;;;5010955;28;20161;-63
2023/03/24 07:40:05;;;;;;;2.53;2.33;;;15.30;69.60;;;;;;5011534;28;20046;-62
2023/03/24 07:42:31;;;;;;;2.17;2.00;;;15.40;69.70;;;;;;5010373;28;20068;-62
2023/03/24 07:44:57;;;;;;;3.80;2.47;;;15.40;69.60;;;;;;5011068;28;20117;-63
2023/03/24 07:47:23;;;;;;;3.33;2.70;;;15.40;69.60;;;;;;5009865;28;20128;-62
2023/03/24 07:49:48;;;;;;;3.70;3.40;;;15.30;69.70;;;;;;5008302;28;20042;-62
2023/03/24 07:52:14;;;;;;;4.72;2.85;;;15.30;70.00;;;;;;5009678;28;20049;-62
2023/03/24 07:54:40;;;;;;;3.47;2.90;;;15.30;70.20;;;;;;5012549;28;20394;-62
2023/03/24 07:57:06;;;;;;;3.83;3.30;;;15.30;70.50;;;;;;5012085;28;20061;-62
2023/03/24 07:59:32;;;;;;;3.67;2.85;;;15.20;70.60;;;;;;5007804;28;20052;-62
2023/03/24 08:01:58;;;;;;;4.32;3.05;;;15.20;70.80;;;;;;5010256;28;20132;-63
2023/03/24 08:04:25;;;;;;;5.05;2.88;;;15.20;70.90;;;;;;5009296;28;20037;-61
2023/03/24 08:06:52;;;;;;;4.45;2.70;;;15.10;71.10;;;;;;5008862;28;20045;-63
2023/03/24 08:09:18;;;;;;;3.92;2.80;;;15.10;71.30;;;;;;5000322;28;20104;-62
2023/03/24 08:11:43;;;;;;;3.20;2.90;;;15.00;71.60;;;;;;5007601;28;20517;-63
2023/03/24 08:14:09;;;;;;;4.38;2.75;;;15.00;72.00;;;;;;5004313;28;22109;-62
2023/03/24 08:16:35;;;;;;;3.08;2.47;;;15.00;72.30;;;;;;5001387;28;20474;-62
2023/03/24 08:19:00;;;;;;;2.65;2.45;;;15.00;72.80;;;;;;5003401;28;20048;-62
2023/03/24 08:21:26;;;;;;;2.80;2.30;;;15.00;73.10;;;;;;5005400;28;20103;-62
2023/03/24 08:23:52;;;;;;;4.13;2.22;;;14.90;73.00;;;;;;5005572;28;20026;-61
2023/03/24 08:26:18;;;;;;;2.67;2.20;;;14.90;73.30;;;;;;5010109;28;20132;-63
2023/03/24 08:28:43;;;;;;;3.15;2.42;;;14.90;73.50;;;;;;5009911;28;20617;-62
2023/03/24 08:31:09;;;;;;;3.85;2.10;;;14.90;73.80;;;;;;5010717;28;20104;-62
2023/03/24 08:33:35;;;;;;;4.88;2.10;;;14.90;73.60;;;;;;5015311;28;20046;-62
2023/03/24 08:36:01;;;;;;;3.45;2.10;;;14.90;73.90;;;;;;5017486;28;20072;-62
2023/03/24 08:38:30;;;;;;;2.33;2.13;;;14.90;73.70;;;;;;5014259;28;20061;-62
2023/03/24 08:41:01;;;;;;;2.22;2.08;;;14.90;74.00;;;;;;5014205;28;20068;-60
2023/03/24 08:43:28;;;;;;;1.92;1.83;;;14.90;73.80;;;;;;5014009;28;20034;-62
2023/03/24 08:45:56;;;;;;;3.03;1.85;;;14.90;73.50;;;;;;5012389;28;20132;-62
2023/03/24 08:48:22;;;;;;;2.42;2.22;;;14.90;73.80;;;;;;5014074;28;21778;-62
2023/03/24 08:50:48;;;;;;;3.80;2.10;;;14.90;73.90;;;;;;5013485;28;20865;-62
2023/03/24 08:53:14;;;;;;;2.67;2.17;;;14.90;74.00;;;;;;5012943;28;20046;-62
2023/03/24 08:55:42;;;;;;;2.13;1.80;;;14.90;74.40;;;;;;5014751;28;20125;-62
2023/03/24 08:58:13;;;;;;;2.72;2.38;;;14.90;74.60;;;;;;5013851;28;20061;-62
2023/03/24 09:00:39;;;;;;;2.75;2.08;;;14.80;74.50;;;;;;5009671;28;20046;-62
2023/03/24 09:03:05;;;;;;;2.45;2.17;;;14.90;74.40;;;;;;5009324;28;20061;-63
2023/03/24 09:05:31;;;;;;;2.38;2.17;;;14.90;74.90;;;;;;5015997;28;20518;-62
2023/03/24 09:07:59;;;;;;;2.97;2.30;;;14.90;74.80;;;;;;5013842;28;20386;-62
2023/03/24 09:10:25;;;;;;;2.65;2.25;;;14.90;75.10;;;;;;5011580;28;20038;-61
2023/03/24 09:12:51;;;;;;;3.25;2.40;;;14.90;75.40;;;;;;5010647;28;20305;-61
2023/03/24 09:15:17;;;;;;;2.60;2.30;;;14.90;75.20;;;;;;5016633;28;20044;-61
2023/03/24 09:17:43;;;;;;;2.47;2.28;;;14.90;75.20;;;;;;5018461;28;20042;-61
2023/03/24 09:20:14;;;;;;;2.58;2.38;;;14.90;75.60;;;;;;5010256;28;20041;-62
2023/03/24 09:22:42;;;;;;;2.83;2.30;;;14.90;75.50;;;;;;5013878;28;20051;-63
2023/03/24 09:25:10;;;;;;;2.33;2.13;;;14.90;75.60;;;;;;5017987;28;20061;-63
2023/03/24 09:27:35;;;;;;;3.20;2.90;;;14.80;76.20;;;;;;5015523;28;20479;-62
2023/03/24 09:30:01;;;;;;;4.30;3.05;;;14.80;76.10;;;;;;5015498;28;20026;-62
2023/03/24 09:32:27;;;;;;;2.95;2.65;;;14.80;76.50;;;;;;5015212;28;20056;-63
2023/03/24 09:34:52;;;;;;;4.07;2.85;;;14.80;76.60;;;;;;5016397;28;20449;-62
2023/03/24 09:37:18;;;;;;;3.70;2.65;;;14.80;77.20;;;;;;5013476;28;20091;-63
2023/03/24 09:39:44;;;;;;;2.38;2.17;;;14.80;77.20;;;;;;5016549;28;20048;-62
2023/03/24 09:42:22;;;;;;;3.22;2.70;;;14.70;77.30;;;;;;5015594;28;20429;-62
2023/03/24 09:44:56;;;;;;;3.72;3.20;;;14.70;79.80;;;;;;5014223;28;20046;-62
2023/03/24 09:47:24;;;;;;;3.65;2.85;;;14.70;78.20;;;;;;5014163;28;20526;-63
2023/03/24 09:49:52;;;;;;;3.42;2.85;;;14.70;77.80;;;;;;5012489;28;20539;-62
2023/03/24 09:52:23;;;;;;;4.28;2.95;;;14.60;77.90;;;;;;5014372;28;20034;-62
2023/03/24 09:55:01;;;;;;;3.30;3.00;;;14.60;77.90;;;;;;5016535;28;20053;-62
2023/03/24 09:57:36;;;;;;;3.53;2.78;;;14.50;78.50;;;;;;5015112;28;20501;-62
2023/03/24 10:00:30;;;;;;;3.50;2.83;;;14.50;78.70;;;;;;5014374;28;20041;-62
2023/03/24 10:03:09;;;;;;;3.28;2.97;;;14.50;79.20;;;;;;5017536;28;20069;-63
2023/03/24 10:05:44;;;;;;;5.10;3.05;;;14.50;78.60;;;;;;5015623;28;20089;-62
2023/03/24 10:08:41;;;;;;;3.08;2.60;;;14.50;79.10;;;;;;5015865;28;20112;-62
2023/03/24 10:11:29;;;;;;;4.88;3.97;;;14.50;79.20;;;;;;5012847;28;20412;-62
2023/03/24 10:14:31;;;;;;;4.63;2.90;;;14.50;79.60;;;;;;5012764;28;20533;-62
2023/03/24 10:17:07;;;;;;;2.83;2.58;;;14.60;79.80;;;;;;5011158;28;20041;-60
2023/03/24 10:20:09;;;;;;;4.07;2.67;;;14.60;79.30;;;;;;5015993;28;20044;-62
2023/03/24 10:22:53;;;;;;;2.95;2.10;;;14.70;79.30;;;;;;5018562;28;20523;-62
2023/03/24 10:25:25;;;;;;;3.00;2.33;;;14.70;79.00;;;;;;5018708;28;20037;-62
2023/03/24 10:28:11;;;;;;;3.17;2.20;;;14.80;79.20;;;;;;5018679;28;20050;-62
2023/03/24 10:30:41;;;;;;;2.17;1.98;;;14.90;78.70;;;;;;5018582;28;20034;-63
2023/03/24 10:33:10;;;;;;;1.73;1.63;;;15.00;78.10;;;;;;5017525;28;20075;-62
2023/03/24 10:35:45;;;;;;;1.98;1.60;;;15.10;78.20;;;;;;5018151;28;20825;-62
2023/03/24 10:38:21;;;;;;;2.20;2.00;;;15.10;77.80;;;;;;5015146;28;20049;-62
2023/03/24 10:40:48;;;;;;;2.70;1.58;;;15.20;77.30;;;;;;5010464;28;20418;-61
2023/03/24 10:43:17;;;;;;;1.90;1.45;;;15.40;76.60;;;;;;5005283;28;20616;-62
2023/03/24 10:45:50;;;;;;;1.50;1.40;;;15.50;76.00;;;;;;5006640;28;20038;-61
2023/03/24 10:48:41;;;;;;;1.40;1.30;;;15.50;75.50;;;;;;5009851;28;20441;-62
2023/03/24 10:51:17;;;;;;;1.73;1.23;;;15.60;75.30;;;;;;5012311;28;20049;-61
2023/03/24 10:53:47;;;;;;;1.52;1.30;;;15.70;74.90;;;;;;5006356;28;20038;-61
2023/03/24 10:56:35;;;;;;;3.08;1.40;;;15.70;74.40;;;;;;5014152;28;20133;-61
2023/03/24 10:59:01;;;;;;;2.65;1.20;;;15.80;74.20;;;;;;5012067;28;20033;-61
2023/03/24 11:01:29;;;;;;;1.23;1.10;;;15.90;73.70;;;;;;5008274;28;20129;-59
2023/03/24 11:04:06;;;;;;;2.08;0.90;;;15.90;73.40;;;;;;5011544;28;20474;-62
2023/03/24 11:06:33;;;;;;;2.45;1.00;;;15.90;72.90;;;;;;5002993;28;20046;-61
2023/03/24 11:09:20;;;;;;;1.00;1.00;;;16.00;72.90;;;;;;5013971;28;20030;-61
2023/03/24 11:11:45;;;;;;;1.20;1.10;;;16.00;72.60;;;;;;5012969;28;20029;-61
2023/03/24 11:14:24;;;;;;;3.08;1.00;;;16.00;72.00;;;;;;5008606;28;20037;-60
2023/03/24 11:16:50;;;;;;;1.05;0.93;;;16.00;71.60;;;;;;5010196;28;20452;-60
2023/03/24 11:19:22;;;;;;;2.38;1.00;;;16.00;71.80;;;;;;5011664;28;20033;-61
2023/03/24 11:21:50;;;;;;;0.98;0.90;;;16.00;71.50;;;;;;5013160;28;20037;-60
2023/03/24 11:24:18;;;;;;;1.42;0.90;;;16.00;71.30;;;;;;5011590;28;20043;-61
2023/03/24 11:27:03;;;;;;;1.70;0.70;;;16.00;71.60;;;;;;5011984;28;20038;-61
2023/03/24 11:29:31;;;;;;;1.53;0.87;;;16.00;71.60;;;;;;5011838;28;20037;-60
2023/03/24 11:32:00;;;;;;;0.77;0.77;;;15.90;71.30;;;;;;5013768;28;20038;-60
2023/03/24 11:34:37;;;;;;;1.55;0.95;;;15.90;71.40;;;;;;5012199;28;20483;-61
2023/03/24 11:37:10;;;;;;;0.90;0.70;;;15.90;71.50;;;;;;5010657;28;20102;-62
2023/03/24 11:39:36;;;;;;;1.20;0.80;;;15.80;71.80;;;;;;5012204;28;20042;-60
2023/03/24 11:42:10;;;;;;;0.90;0.65;;;15.80;72.10;;;;;;5005009;28;20037;-62
2023/03/24 11:44:44;;;;;;;2.05;0.85;;;15.70;72.30;;;;;;5010247;28;20045;-63
2023/03/24 11:47:35;;;;;;;1.25;0.82;;;15.60;72.70;;;;;;5011498;28;20029;-62
2023/03/24 11:50:24;;;;;;;1.77;0.80;;;15.50;73.40;;;;;;5012767;28;20034;-60
2023/03/24 11:53:22;;;;;;;1.13;0.90;;;15.40;73.00;;;;;;5012560;28;20025;-62
2023/03/24 11:55:56;;;;;;;1.30;0.80;;;15.30;73.70;;;;;;5012565;28;20034;-60
2023/03/24 11:58:36;;;;;;;0.73;0.73;;;15.10;73.60;;;;;;5010915;28;20041;-61
2023/03/24 12:01:25;;;;;;;1.55;0.80;;;15.00;74.50;;;;;;5011442;28;20524;-62
2023/03/24 12:03:59;;;;;;;0.80;0.70;;;14.90;74.90;;;;;;5012675;28;20045;-62
2023/03/24 12:06:49;;;;;;;0.60;0.57;;;14.80;74.70;;;;;;5011739;28;20047;-61
2023/03/24 12:09:39;;;;;;;1.15;0.98;;;14.70;74.80;;;;;;5015950;28;20508;-59
2023/03/24 12:12:19;;;;;;;1.00;0.70;;;14.70;75.40;;;;;;5014115;28;20040;-60
2023/03/24 12:15:12;;;;;;;1.02;0.80;;;14.70;75.20;;;;;;5015309;28;20060;-61
2023/03/24 12:17:52;;;;;;;0.50;0.50;;;14.60;75.60;;;;;;5016034;28;20037;-61
2023/03/24 12:20:27;;;;;;;0.60;0.60;;;14.60;75.30;;;;;;5013961;28;20411;-60
2023/03/24 12:23:12;;;;;;;0.40;0.40;;;14.50;75.30;;;;;;5017470;28;20037;-60
2023/03/24 12:25:41;;;;;;;1.13;0.60;;;14.50;75.80;;;;;;5016263;28;20064;-62
2023/03/24 12:28:09;;;;;;;1.10;0.50;;;14.50;75.50;;;;;;5013671;28;20046;-62
2023/03/24 12:30:44;;;;;;;1.13;0.60;;;14.60;75.30;;;;;;5015508;28;20513;-61
2023/03/24 12:33:45;;;;;;;0.55;0.50;;;14.60;75.30;;;;;;5017367;28;20037;-61
2023/03/24 12:36:32;;;;;;;0.82;0.60;;;14.60;75.80;;;;;;5015983;28;20045;-62
2023/03/24 12:39:08;;;;;;;0.60;0.60;;;14.70;75.40;;;;;;5014616;28;20029;-61
2023/03/24 12:42:05;;;;;;;1.15;0.70;;;14.70;76.10;;;;;;5015215;28;20034;-60
2023/03/24 12:44:36;;;;;;;0.50;0.45;;;14.70;75.50;;;;;;5013408;28;20041;-61
2023/03/24 12:47:17;;;;;;;0.60;0.50;;;14.70;75.20;;;;;;5017184;28;20053;-61
2023/03/24 12:49:45;;;;;;;0.50;0.50;;;14.70;75.30;;;;;;5011389;28;20951;-65
2023/03/24 12:52:29;;;;;;;0.52;0.52;;;14.70;74.80;;;;;;5014145;28;20041;-60
2023/03/24 12:55:11;;;;;;;0.63;0.43;;;14.70;74.60;;;;;;5014057;28;20540;-62
2023/03/24 12:57:44;;;;;;;1.38;0.43;;;14.80;74.40;;;;;;5017127;28;20125;-62
2023/03/24 13:00:25;;;;;;;1.30;0.57;;;14.90;74.00;;;;;;5014277;28;20060;-62
2023/03/24 13:02:55;;;;;;;0.65;0.47;;;14.80;74.40;;;;;;5015859;28;20038;-61
2023/03/24 13:05:29;;;;;;;0.52;0.52;;;14.80;73.90;;;;;;5014896;28;20116;-62
2023/03/24 13:08:01;;;;;;;1.35;0.35;;;14.70;73.70;;;;;;5018030;28;20038;-62
2023/03/24 13:10:28;;;;;;;1.77;0.40;;;14.70;74.00;;;;;;5016854;28;20441;-61